Weather at Armour Heights Field [CLOSED]

Public forecast

Using degrees Celsius for public forecast. Weather courtesy of forecast.io.

Closest aviation weather report (METAR) to Armour Heights Field

Closest report is Billy Bishop Toronto City Centre Airport, 6.9 nm (12.8 km) S. Retrieved 2021/10/21 03:40 UTC (52 minutes ago):

CYTZ 210340Z AUTO VRB02KT 9SM BKN100 BKN120 BKN140 14/13 A2995 RMK SLP145

Closest aviation forecast (TAF) to Armour Heights Field

Closest forecast is Billy Bishop Toronto City Centre Airport, 6.9 nm (12.8 km) S. Retrieved 2021-10-21 02:44 UTC (2 hours ago):

TAF CYTZ 210138Z 2102/2202 23005KT P6SM SCT110 BKN140 FM210300 23005KT P6SM SCT080 BKN110 TEMPO 2103/2115 P6SM -SHRA BECMG 2110/2112 22010KT FM211500 22012G22KT P6SM BKN025 BKN100 TEMPO 2115/2121 P6SM -SHRA BKN020 OVC080 FM212100 22015G25KT 6SM -SHRA BR BKN015 OVC040 PROB30 2123/2202 2SM +TSRA BR OVC009CB RMK FCST BASED ON AUTO OBS NXT FCST BY 210800Z